sensor_id;sensor_type;location;lat;lon;timestamp;temperature;humidity
42615;DHT22;28754;47.700;7.924;2024-02-28T00:00:24;6.20;99.90
42615;DHT22;28754;47.700;7.924;2024-02-28T00:03:11;6.20;99.90
42615;DHT22;28754;47.700;7.924;2024-02-28T00:05:57;6.20;99.90
42615;DHT22;28754;47.700;7.924;2024-02-28T00:08:44;6.20;99.90
42615;DHT22;28754;47.700;7.924;2024-02-28T00:11:32;6.20;99.90
42615;DHT22;28754;47.700;7.924;2024-02-28T00:14:19;6.30;99.90
42615;DHT22;28754;47.700;7.924;2024-02-28T00:17:05;6.30;99.90
42615;DHT22;28754;47.700;7.924;2024-02-28T00:19:52;6.30;99.90
42615;DHT22;28754;47.700;7.924;2024-02-28T00:22:39;6.40;99.90
42615;DHT22;28754;47.700;7.924;2024-02-28T00:25:25;6.30;99.90
42615;DHT22;28754;47.700;7.924;2024-02-28T00:28:12;6.30;99.90
42615;DHT22;28754;47.700;7.924;2024-02-28T00:30:59;6.30;99.90
42615;DHT22;28754;47.700;7.924;2024-02-28T00:33:45;6.30;99.90
42615;DHT22;28754;47.700;7.924;2024-02-28T00:36:32;6.30;99.90
42615;DHT22;28754;47.700;7.924;2024-02-28T00:39:19;6.40;99.90
42615;DHT22;28754;47.700;7.924;2024-02-28T00:42:06;6.40;99.90
42615;DHT22;28754;47.700;7.924;2024-02-28T00:44:52;6.40;99.90
42615;DHT22;28754;47.700;7.924;2024-02-28T00:47:39;6.40;99.90
42615;DHT22;28754;47.700;7.924;2024-02-28T00:50:26;6.40;99.90
42615;DHT22;28754;47.700;7.924;2024-02-28T00:53:13;6.40;99.90
42615;DHT22;28754;47.700;7.924;2024-02-28T00:55:59;6.40;99.90
42615;DHT22;28754;47.700;7.924;2024-02-28T00:58:46;6.40;99.90
42615;DHT22;28754;47.700;7.924;2024-02-28T01:01:33;6.40;99.90
42615;DHT22;28754;47.700;7.924;2024-02-28T01:04:19;6.40;99.90
42615;DHT22;28754;47.700;7.924;2024-02-28T01:07:06;6.40;99.90
42615;DHT22;28754;47.700;7.924;2024-02-28T01:09:53;6.40;99.90
42615;DHT22;28754;47.700;7.924;2024-02-28T01:12:39;6.30;99.90
42615;DHT22;28754;47.700;7.924;2024-02-28T01:15:26;6.30;99.90
42615;DHT22;28754;47.700;7.924;2024-02-28T01:18:13;6.20;99.90
42615;DHT22;28754;47.700;7.924;2024-02-28T01:20:59;6.20;99.90
42615;DHT22;28754;47.700;7.924;2024-02-28T01:23:46;6.10;99.90
42615;DHT22;28754;47.700;7.924;2024-02-28T01:26:33;6.00;99.90
42615;DHT22;28754;47.700;7.924;2024-02-28T01:29:19;5.80;99.90
42615;DHT22;28754;47.700;7.924;2024-02-28T01:32:06;5.80;99.90
42615;DHT22;28754;47.700;7.924;2024-02-28T01:34:53;5.70;99.90
42615;DHT22;28754;47.700;7.924;2024-02-28T01:37:40;5.70;99.90
42615;DHT22;28754;47.700;7.924;2024-02-28T01:40:26;5.70;99.90
42615;DHT22;28754;47.700;7.924;2024-02-28T01:43:13;5.60;99.90
42615;DHT22;28754;47.700;7.924;2024-02-28T01:46:01;5.50;99.90
42615;DHT22;28754;47.700;7.924;2024-02-28T01:48:52;5.50;99.90
42615;DHT22;28754;47.700;7.924;2024-02-28T01:51:39;5.50;99.90
42615;DHT22;28754;47.700;7.924;2024-02-28T01:54:28;5.60;99.90
42615;DHT22;28754;47.700;7.924;2024-02-28T01:57:16;5.50;99.90
42615;DHT22;28754;47.700;7.924;2024-02-28T02:00:04;5.50;99.90
42615;DHT22;28754;47.700;7.924;2024-02-28T02:02:54;5.50;99.90
42615;DHT22;28754;47.700;7.924;2024-02-28T02:05:41;5.50;99.90
42615;DHT22;28754;47.700;7.924;2024-02-28T02:08:29;5.50;99.90
42615;DHT22;28754;47.700;7.924;2024-02-28T02:11:17;5.50;99.90
42615;DHT22;28754;47.700;7.924;2024-02-28T02:14:07;5.50;99.90
42615;DHT22;28754;47.700;7.924;2024-02-28T02:16:54;5.40;99.90
42615;DHT22;28754;47.700;7.924;2024-02-28T02:19:41;5.40;99.90
42615;DHT22;28754;47.700;7.924;2024-02-28T02:22:32;5.40;99.90
42615;DHT22;28754;47.700;7.924;2024-02-28T02:25:20;5.30;99.90
42615;DHT22;28754;47.700;7.924;2024-02-28T02:28:07;5.20;99.90
42615;DHT22;28754;47.700;7.924;2024-02-28T02:30:54;5.20;99.90
42615;DHT22;28754;47.700;7.924;2024-02-28T02:33:40;5.30;99.90
42615;DHT22;28754;47.700;7.924;2024-02-28T02:36:27;5.30;99.90
42615;DHT22;28754;47.700;7.924;2024-02-28T02:39:13;5.30;99.90
42615;DHT22;28754;47.700;7.924;2024-02-28T02:42:00;5.30;99.90
42615;DHT22;28754;47.700;7.924;2024-02-28T02:44:47;5.30;99.90
42615;DHT22;28754;47.700;7.924;2024-02-28T02:47:33;5.30;99.90
42615;DHT22;28754;47.700;7.924;2024-02-28T02:50:20;5.30;99.90
42615;DHT22;28754;47.700;7.924;2024-02-28T02:53:09;5.20;99.90
42615;DHT22;28754;47.700;7.924;2024-02-28T02:55:56;5.20;99.90
42615;DHT22;28754;47.700;7.924;2024-02-28T02:58:43;5.20;99.90
42615;DHT22;28754;47.700;7.924;2024-02-28T03:01:30;5.10;99.90
42615;DHT22;28754;47.700;7.924;2024-02-28T03:04:17;5.00;99.90
42615;DHT22;28754;47.700;7.924;2024-02-28T03:07:04;5.00;99.90
42615;DHT22;28754;47.700;7.924;2024-02-28T03:09:51;5.00;99.90
42615;DHT22;28754;47.700;7.924;2024-02-28T03:12:37;5.00;99.90
42615;DHT22;28754;47.700;7.924;2024-02-28T03:15:24;4.90;99.90
42615;DHT22;28754;47.700;7.924;2024-02-28T03:18:11;4.90;99.90
42615;DHT22;28754;47.700;7.924;2024-02-28T03:20:58;4.90;99.90
42615;DHT22;28754;47.700;7.924;2024-02-28T03:23:44;4.90;99.90
42615;DHT22;28754;47.700;7.924;2024-02-28T03:26:31;4.90;99.90
42615;DHT22;28754;47.700;7.924;2024-02-28T03:29:17;4.80;99.90
42615;DHT22;28754;47.700;7.924;2024-02-28T03:32:04;4.80;99.90
42615;DHT22;28754;47.700;7.924;2024-02-28T03:34:51;4.70;99.90
42615;DHT22;28754;47.700;7.924;2024-02-28T03:37:38;4.80;99.90
42615;DHT22;28754;47.700;7.924;2024-02-28T03:40:24;4.80;99.90
42615;DHT22;28754;47.700;7.924;2024-02-28T03:43:11;4.80;99.90
42615;DHT22;28754;47.700;7.924;2024-02-28T03:45:59;4.80;99.90
42615;DHT22;28754;47.700;7.924;2024-02-28T03:48:45;4.70;99.90
42615;DHT22;28754;47.700;7.924;2024-02-28T03:51:32;4.70;99.90
42615;DHT22;28754;47.700;7.924;2024-02-28T03:54:19;4.70;99.90
42615;DHT22;28754;47.700;7.924;2024-02-28T03:57:05;4.60;99.90
42615;DHT22;28754;47.700;7.924;2024-02-28T03:59:52;4.60;99.90
42615;DHT22;28754;47.700;7.924;2024-02-28T04:02:39;4.60;99.90
42615;DHT22;28754;47.700;7.924;2024-02-28T04:05:25;4.60;99.90
42615;DHT22;28754;47.700;7.924;2024-02-28T04:08:12;4.60;99.90
42615;DHT22;28754;47.700;7.924;2024-02-28T04:10:59;4.60;99.90
42615;DHT22;28754;47.700;7.924;2024-02-28T04:13:46;4.60;99.90
42615;DHT22;28754;47.700;7.924;2024-02-28T04:16:32;4.60;99.90
42615;DHT22;28754;47.700;7.924;2024-02-28T04:19:19;4.60;99.90
42615;DHT22;28754;47.700;7.924;2024-02-28T04:22:06;4.60;99.90
42615;DHT22;28754;47.700;7.924;2024-02-28T04:24:52;4.60;99.90
42615;DHT22;28754;47.700;7.924;2024-02-28T04:27:39;4.70;99.90
42615;DHT22;28754;47.700;7.924;2024-02-28T04:30:25;4.70;99.90
42615;DHT22;28754;47.700;7.924;2024-02-28T04:33:12;4.70;99.90
42615;DHT22;28754;47.700;7.924;2024-02-28T04:35:59;4.70;99.90
42615;DHT22;28754;47.700;7.924;2024-02-28T04:38:45;4.70;99.90
42615;DHT22;28754;47.700;7.924;2024-02-28T04:41:32;4.70;99.90
42615;DHT22;28754;47.700;7.924;2024-02-28T04:44:20;4.70;99.90
42615;DHT22;28754;47.700;7.924;2024-02-28T04:47:06;4.70;99.90
42615;DHT22;28754;47.700;7.924;2024-02-28T04:49:53;4.60;99.90
42615;DHT22;28754;47.700;7.924;2024-02-28T04:52:40;4.60;99.90
42615;DHT22;28754;47.700;7.924;2024-02-28T04:55:26;4.70;99.90
42615;DHT22;28754;47.700;7.924;2024-02-28T04:58:13;4.70;99.90
42615;DHT22;28754;47.700;7.924;2024-02-28T05:01:00;4.60;99.90
42615;DHT22;28754;47.700;7.924;2024-02-28T05:03:47;4.70;99.90
42615;DHT22;28754;47.700;7.924;2024-02-28T05:06:34;4.70;99.90
42615;DHT22;28754;47.700;7.924;2024-02-28T05:09:21;4.60;99.90
42615;DHT22;28754;47.700;7.924;2024-02-28T05:12:07;4.70;99.90
42615;DHT22;28754;47.700;7.924;2024-02-28T05:14:54;4.70;99.90
42615;DHT22;28754;47.700;7.924;2024-02-28T05:17:41;4.70;99.90
42615;DHT22;28754;47.700;7.924;2024-02-28T05:20:27;4.70;99.90
42615;DHT22;28754;47.700;7.924;2024-02-28T05:23:14;4.50;99.90
42615;DHT22;28754;47.700;7.924;2024-02-28T05:26:01;4.50;99.90
42615;DHT22;28754;47.700;7.924;2024-02-28T05:28:50;4.50;99.90
42615;DHT22;28754;47.700;7.924;2024-02-28T05:31:36;4.50;99.90
42615;DHT22;28754;47.700;7.924;2024-02-28T05:34:24;4.50;99.90
42615;DHT22;28754;47.700;7.924;2024-02-28T05:37:11;4.50;99.90
42615;DHT22;28754;47.700;7.924;2024-02-28T05:39:57;4.40;99.90
42615;DHT22;28754;47.700;7.924;2024-02-28T05:42:44;4.50;99.90
42615;DHT22;28754;47.700;7.924;2024-02-28T05:45:31;4.50;99.90
42615;DHT22;28754;47.700;7.924;2024-02-28T05:48:18;4.50;99.90
42615;DHT22;28754;47.700;7.924;2024-02-28T05:51:05;4.40;99.90
42615;DHT22;28754;47.700;7.924;2024-02-28T05:53:52;4.40;99.90
42615;DHT22;28754;47.700;7.924;2024-02-28T05:56:39;4.40;99.90
42615;DHT22;28754;47.700;7.924;2024-02-28T05:59:25;4.40;99.90
42615;DHT22;28754;47.700;7.924;2024-02-28T06:02:12;4.40;99.90
42615;DHT22;28754;47.700;7.924;2024-02-28T06:04:59;4.40;99.90
42615;DHT22;28754;47.700;7.924;2024-02-28T06:07:45;4.40;99.90
42615;DHT22;28754;47.700;7.924;2024-02-28T06:10:32;4.30;99.90
42615;DHT22;28754;47.700;7.924;2024-02-28T06:13:19;4.40;99.90
42615;DHT22;28754;47.700;7.924;2024-02-28T06:16:06;4.30;99.90
42615;DHT22;28754;47.700;7.924;2024-02-28T06:18:52;4.30;99.90
42615;DHT22;28754;47.700;7.924;2024-02-28T06:21:39;4.40;99.90
42615;DHT22;28754;47.700;7.924;2024-02-28T06:24:26;4.40;99.90
42615;DHT22;28754;47.700;7.924;2024-02-28T06:27:12;4.30;99.90
42615;DHT22;28754;47.700;7.924;2024-02-28T06:29:59;4.30;99.90
42615;DHT22;28754;47.700;7.924;2024-02-28T06:32:49;4.40;99.90
42615;DHT22;28754;47.700;7.924;2024-02-28T06:35:36;4.30;99.90
42615;DHT22;28754;47.700;7.924;2024-02-28T06:38:22;4.40;99.90
42615;DHT22;28754;47.700;7.924;2024-02-28T06:41:09;4.40;99.90
42615;DHT22;28754;47.700;7.924;2024-02-28T06:43:56;4.50;99.90
42615;DHT22;28754;47.700;7.924;2024-02-28T06:46:43;4.60;99.90
42615;DHT22;28754;47.700;7.924;2024-02-28T06:49:29;4.50;99.90
42615;DHT22;28754;47.700;7.924;2024-02-28T06:52:16;4.60;99.90
42615;DHT22;28754;47.700;7.924;2024-02-28T06:55:03;4.60;99.90
42615;DHT22;28754;47.700;7.924;2024-02-28T06:57:56;4.70;99.90
42615;DHT22;28754;47.700;7.924;2024-02-28T07:00:43;4.70;99.90
42615;DHT22;28754;47.700;7.924;2024-02-28T07:03:29;4.60;99.90
42615;DHT22;28754;47.700;7.924;2024-02-28T07:06:16;4.70;99.90
42615;DHT22;28754;47.700;7.924;2024-02-28T07:09:03;4.70;99.90
42615;DHT22;28754;47.700;7.924;2024-02-28T07:11:49;4.70;99.90
42615;DHT22;28754;47.700;7.924;2024-02-28T07:14:37;4.60;99.90
42615;DHT22;28754;47.700;7.924;2024-02-28T07:17:24;4.60;99.90
42615;DHT22;28754;47.700;7.924;2024-02-28T07:20:11;4.50;99.90
42615;DHT22;28754;47.700;7.924;2024-02-28T07:22:59;4.70;99.90
42615;DHT22;28754;47.700;7.924;2024-02-28T07:25:46;4.80;99.90
42615;DHT22;28754;47.700;7.924;2024-02-28T07:28:33;4.90;99.90
42615;DHT22;28754;47.700;7.924;2024-02-28T07:31:20;5.10;99.90
42615;DHT22;28754;47.700;7.924;2024-02-28T07:34:06;5.30;99.90
42615;DHT22;28754;47.700;7.924;2024-02-28T07:36:54;5.30;99.90
42615;DHT22;28754;47.700;7.924;2024-02-28T07:39:40;5.20;99.90
42615;DHT22;28754;47.700;7.924;2024-02-28T07:42:27;5.20;99.90
42615;DHT22;28754;47.700;7.924;2024-02-28T07:45:14;5.20;99.90
42615;DHT22;28754;47.700;7.924;2024-02-28T07:48:01;5.40;99.90
42615;DHT22;28754;47.700;7.924;2024-02-28T07:50:47;5.40;99.90
42615;DHT22;28754;47.700;7.924;2024-02-28T07:53:34;5.60;99.90
42615;DHT22;28754;47.700;7.924;2024-02-28T07:56:21;5.70;99.90
42615;DHT22;28754;47.700;7.924;2024-02-28T07:59:08;5.80;99.90
42615;DHT22;28754;47.700;7.924;2024-02-28T08:01:54;6.20;99.90
42615;DHT22;28754;47.700;7.924;2024-02-28T08:04:41;7.30;99.90
42615;DHT22;28754;47.700;7.924;2024-02-28T08:07:28;8.90;99.90
42615;DHT22;28754;47.700;7.924;2024-02-28T08:10:15;9.80;99.90
42615;DHT22;28754;47.700;7.924;2024-02-28T08:13:02;10.10;99.90
42615;DHT22;28754;47.700;7.924;2024-02-28T08:15:48;10.10;99.90
42615;DHT22;28754;47.700;7.924;2024-02-28T08:18:35;9.50;99.90
42615;DHT22;28754;47.700;7.924;2024-02-28T08:21:21;9.20;99.90
42615;DHT22;28754;47.700;7.924;2024-02-28T08:24:08;9.30;99.90
42615;DHT22;28754;47.700;7.924;2024-02-28T08:26:55;9.60;99.90
42615;DHT22;28754;47.700;7.924;2024-02-28T08:29:42;10.20;99.90
42615;DHT22;28754;47.700;7.924;2024-02-28T08:32:32;11.70;99.90
42615;DHT22;28754;47.700;7.924;2024-02-28T08:35:19;11.60;99.90
42615;DHT22;28754;47.700;7.924;2024-02-28T08:38:06;12.10;99.90
42615;DHT22;28754;47.700;7.924;2024-02-28T08:40:53;13.40;99.90
42615;DHT22;28754;47.700;7.924;2024-02-28T08:43:40;13.30;99.90
42615;DHT22;28754;47.700;7.924;2024-02-28T08:46:27;13.00;99.90
42615;DHT22;28754;47.700;7.924;2024-02-28T08:49:14;13.50;99.90
42615;DHT22;28754;47.700;7.924;2024-02-28T08:52:01;14.20;99.90
42615;DHT22;28754;47.700;7.924;2024-02-28T08:54:49;14.90;99.90
42615;DHT22;28754;47.700;7.924;2024-02-28T08:57:36;14.10;99.90
42615;DHT22;28754;47.700;7.924;2024-02-28T09:00:22;14.10;99.90
42615;DHT22;28754;47.700;7.924;2024-02-28T09:03:09;14.00;99.90
42615;DHT22;28754;47.700;7.924;2024-02-28T09:05:56;13.20;99.90
42615;DHT22;28754;47.700;7.924;2024-02-28T09:08:42;12.20;99.90
42615;DHT22;28754;47.700;7.924;2024-02-28T09:11:29;12.40;99.90
42615;DHT22;28754;47.700;7.924;2024-02-28T09:14:16;12.60;99.90
42615;DHT22;28754;47.700;7.924;2024-02-28T09:17:02;13.30;99.90
42615;DHT22;28754;47.700;7.924;2024-02-28T09:19:50;12.40;99.90
42615;DHT22;28754;47.700;7.924;2024-02-28T09:22:38;11.50;99.90
42615;DHT22;28754;47.700;7.924;2024-02-28T09:25:25;13.20;99.90
42615;DHT22;28754;47.700;7.924;2024-02-28T09:28:11;16.30;99.90
42615;DHT22;28754;47.700;7.924;2024-02-28T09:31:02;17.90;99.90
42615;DHT22;28754;47.700;7.924;2024-02-28T09:33:50;22.20;99.90
42615;DHT22;28754;47.700;7.924;2024-02-28T09:36:43;24.20;99.90
42615;DHT22;28754;47.700;7.924;2024-02-28T09:39:31;22.10;99.90
42615;DHT22;28754;47.700;7.924;2024-02-28T09:42:18;19.60;99.90
42615;DHT22;28754;47.700;7.924;2024-02-28T09:45:08;18.60;99.90
42615;DHT22;28754;47.700;7.924;2024-02-28T09:47:59;16.90;99.90
42615;DHT22;28754;47.700;7.924;2024-02-28T09:50:49;16.70;99.90
42615;DHT22;28754;47.700;7.924;2024-02-28T09:53:36;15.60;99.90
42615;DHT22;28754;47.700;7.924;2024-02-28T09:56:23;13.60;99.90
42615;DHT22;28754;47.700;7.924;2024-02-28T09:59:11;12.30;99.90
42615;DHT22;28754;47.700;7.924;2024-02-28T10:02:00;11.50;99.90
42615;DHT22;28754;47.700;7.924;2024-02-28T10:04:47;12.80;99.90
42615;DHT22;28754;47.700;7.924;2024-02-28T10:07:35;16.50;99.90
42615;DHT22;28754;47.700;7.924;2024-02-28T10:10:22;18.90;99.90
42615;DHT22;28754;47.700;7.924;2024-02-28T10:13:09;19.00;99.90
42615;DHT22;28754;47.700;7.924;2024-02-28T10:15:56;20.70;99.90
42615;DHT22;28754;47.700;7.924;2024-02-28T10:18:43;22.40;99.90
42615;DHT22;28754;47.700;7.924;2024-02-28T10:21:30;20.20;99.90
42615;DHT22;28754;47.700;7.924;2024-02-28T10:24:20;15.90;99.90
42615;DHT22;28754;47.700;7.924;2024-02-28T10:27:10;14.30;99.90
42615;DHT22;28754;47.700;7.924;2024-02-28T10:30:03;13.30;99.90
42615;DHT22;28754;47.700;7.924;2024-02-28T10:32:53;14.90;99.90
42615;DHT22;28754;47.700;7.924;2024-02-28T10:35:41;20.00;99.90
42615;DHT22;28754;47.700;7.924;2024-02-28T10:38:29;21.70;99.90
42615;DHT22;28754;47.700;7.924;2024-02-28T10:41:18;18.90;99.90
42615;DHT22;28754;47.700;7.924;2024-02-28T10:44:05;15.70;99.90
42615;DHT22;28754;47.700;7.924;2024-02-28T10:46:52;14.50;99.90
42615;DHT22;28754;47.700;7.924;2024-02-28T10:49:42;19.40;99.90
42615;DHT22;28754;47.700;7.924;2024-02-28T10:52:33;20.80;99.90
42615;DHT22;28754;47.700;7.924;2024-02-28T10:55:21;22.00;99.90
42615;DHT22;28754;47.700;7.924;2024-02-28T10:58:11;22.60;99.90
42615;DHT22;28754;47.700;7.924;2024-02-28T11:00:58;18.30;99.90
42615;DHT22;28754;47.700;7.924;2024-02-28T11:03:45;16.90;99.90
42615;DHT22;28754;47.700;7.924;2024-02-28T11:06:32;14.30;99.90
42615;DHT22;28754;47.700;7.924;2024-02-28T11:09:20;12.60;99.90
42615;DHT22;28754;47.700;7.924;2024-02-28T11:12:28;11.80;99.90
42615;DHT22;28754;47.700;7.924;2024-02-28T11:15:18;10.90;99.90
42615;DHT22;28754;47.700;7.924;2024-02-28T11:18:09;10.50;99.90
42615;DHT22;28754;47.700;7.924;2024-02-28T11:20:55;10.90;99.90
42615;DHT22;28754;47.700;7.924;2024-02-28T11:23:46;11.60;99.90
42615;DHT22;28754;47.700;7.924;2024-02-28T11:26:34;12.40;99.90
42615;DHT22;28754;47.700;7.924;2024-02-28T11:29:27;17.30;99.90
42615;DHT22;28754;47.700;7.924;2024-02-28T11:32:15;20.80;99.90
42615;DHT22;28754;47.700;7.924;2024-02-28T11:35:02;24.90;99.90
42615;DHT22;28754;47.700;7.924;2024-02-28T11:37:49;26.80;99.90
42615;DHT22;28754;47.700;7.924;2024-02-28T11:40:36;24.30;99.90
42615;DHT22;28754;47.700;7.924;2024-02-28T11:43:25;23.40;99.90
42615;DHT22;28754;47.700;7.924;2024-02-28T11:46:12;22.20;99.90
42615;DHT22;28754;47.700;7.924;2024-02-28T11:49:01;22.40;99.90
42615;DHT22;28754;47.700;7.924;2024-02-28T11:51:48;23.50;99.90
42615;DHT22;28754;47.700;7.924;2024-02-28T11:54:34;22.20;99.90
42615;DHT22;28754;47.700;7.924;2024-02-28T11:57:21;19.90;99.90
42615;DHT22;28754;47.700;7.924;2024-02-28T12:00:09;18.10;99.90
42615;DHT22;28754;47.700;7.924;2024-02-28T12:03:05;17.00;99.90
42615;DHT22;28754;47.700;7.924;2024-02-28T12:05:57;16.30;99.90
42615;DHT22;28754;47.700;7.924;2024-02-28T12:08:45;15.70;99.90
42615;DHT22;28754;47.700;7.924;2024-02-28T12:11:32;13.70;99.90
42615;DHT22;28754;47.700;7.924;2024-02-28T12:14:19;13.50;99.90
42615;DHT22;28754;47.700;7.924;2024-02-28T12:17:08;14.10;99.90
42615;DHT22;28754;47.700;7.924;2024-02-28T12:19:56;17.30;99.90
42615;DHT22;28754;47.700;7.924;2024-02-28T12:22:45;20.50;99.90
42615;DHT22;28754;47.700;7.924;2024-02-28T12:25:32;23.00;99.90
42615;DHT22;28754;47.700;7.924;2024-02-28T12:28:21;23.80;99.90
42615;DHT22;28754;47.700;7.924;2024-02-28T12:31:08;24.40;99.90
42615;DHT22;28754;47.700;7.924;2024-02-28T12:33:57;25.30;99.90
42615;DHT22;28754;47.700;7.924;2024-02-28T12:36:44;22.60;99.90
42615;DHT22;28754;47.700;7.924;2024-02-28T12:39:31;17.70;99.90
42615;DHT22;28754;47.700;7.924;2024-02-28T12:42:20;17.70;99.90
42615;DHT22;28754;47.700;7.924;2024-02-28T12:45:07;19.00;99.90
42615;DHT22;28754;47.700;7.924;2024-02-28T12:47:54;19.50;99.90
42615;DHT22;28754;47.700;7.924;2024-02-28T12:50:43;17.40;99.90
42615;DHT22;28754;47.700;7.924;2024-02-28T12:53:29;15.70;99.90
42615;DHT22;28754;47.700;7.924;2024-02-28T12:56:16;15.20;99.90
42615;DHT22;28754;47.700;7.924;2024-02-28T12:59:04;14.40;99.90
42615;DHT22;28754;47.700;7.924;2024-02-28T13:01:53;13.60;99.90
42615;DHT22;28754;47.700;7.924;2024-02-28T13:04:40;13.90;99.90
42615;DHT22;28754;47.700;7.924;2024-02-28T13:07:26;13.60;99.90
42615;DHT22;28754;47.700;7.924;2024-02-28T13:10:14;16.40;99.90
42615;DHT22;28754;47.700;7.924;2024-02-28T13:13:01;17.50;99.90
42615;DHT22;28754;47.700;7.924;2024-02-28T13:15:48;19.10;99.90
42615;DHT22;28754;47.700;7.924;2024-02-28T13:18:35;20.70;99.90
42615;DHT22;28754;47.700;7.924;2024-02-28T13:21:22;20.00;99.90
42615;DHT22;28754;47.700;7.924;2024-02-28T13:24:08;19.00;99.90
42615;DHT22;28754;47.700;7.924;2024-02-28T13:26:55;16.40;99.90
42615;DHT22;28754;47.700;7.924;2024-02-28T13:29:42;14.40;99.90
42615;DHT22;28754;47.700;7.924;2024-02-28T13:32:28;13.80;99.90
42615;DHT22;28754;47.700;7.924;2024-02-28T13:35:15;12.40;99.90
42615;DHT22;28754;47.700;7.924;2024-02-28T13:38:02;11.60;99.90
42615;DHT22;28754;47.700;7.924;2024-02-28T13:40:49;10.90;99.90
42615;DHT22;28754;47.700;7.924;2024-02-28T13:43:38;10.40;99.90
42615;DHT22;28754;47.700;7.924;2024-02-28T13:46:25;10.10;99.90
42615;DHT22;28754;47.700;7.924;2024-02-28T13:49:13;10.20;99.90
42615;DHT22;28754;47.700;7.924;2024-02-28T13:52:01;9.60;99.90
42615;DHT22;28754;47.700;7.924;2024-02-28T13:54:47;9.30;99.90
42615;DHT22;28754;47.700;7.924;2024-02-28T13:57:34;9.50;99.90
42615;DHT22;28754;47.700;7.924;2024-02-28T14:00:21;9.30;99.90
42615;DHT22;28754;47.700;7.924;2024-02-28T14:03:07;9.10;99.90
42615;DHT22;28754;47.700;7.924;2024-02-28T14:05:54;9.20;99.90
42615;DHT22;28754;47.700;7.924;2024-02-28T14:08:41;9.30;99.90
42615;DHT22;28754;47.700;7.924;2024-02-28T14:11:28;9.10;99.90
42615;DHT22;28754;47.700;7.924;2024-02-28T14:14:15;8.80;99.90
42615;DHT22;28754;47.700;7.924;2024-02-28T14:17:02;8.80;99.90
42615;DHT22;28754;47.700;7.924;2024-02-28T14:19:49;8.40;99.90
42615;DHT22;28754;47.700;7.924;2024-02-28T14:22:36;8.90;99.90
42615;DHT22;28754;47.700;7.924;2024-02-28T14:25:23;9.40;99.90
42615;DHT22;28754;47.700;7.924;2024-02-28T14:28:09;9.70;99.90
42615;DHT22;28754;47.700;7.924;2024-02-28T14:30:56;9.30;99.90
42615;DHT22;28754;47.700;7.924;2024-02-28T14:33:43;8.90;99.90
42615;DHT22;28754;47.700;7.924;2024-02-28T14:36:29;8.90;99.90
42615;DHT22;28754;47.700;7.924;2024-02-28T14:39:16;9.40;99.90
42615;DHT22;28754;47.700;7.924;2024-02-28T14:42:04;9.90;99.90
42615;DHT22;28754;47.700;7.924;2024-02-28T14:44:50;10.10;99.90
42615;DHT22;28754;47.700;7.924;2024-02-28T14:47:38;9.80;99.90
42615;DHT22;28754;47.700;7.924;2024-02-28T14:50:25;9.80;99.90
42615;DHT22;28754;47.700;7.924;2024-02-28T14:53:12;9.90;99.90
42615;DHT22;28754;47.700;7.924;2024-02-28T14:55:58;9.80;99.90
42615;DHT22;28754;47.700;7.924;2024-02-28T14:58:45;10.00;99.90
42615;DHT22;28754;47.700;7.924;2024-02-28T15:01:32;10.00;99.90
42615;DHT22;28754;47.700;7.924;2024-02-28T15:04:19;9.80;99.90
42615;DHT22;28754;47.700;7.924;2024-02-28T15:07:05;9.90;99.90
42615;DHT22;28754;47.700;7.924;2024-02-28T15:09:52;9.80;99.90
42615;DHT22;28754;47.700;7.924;2024-02-28T15:12:39;9.10;99.90
42615;DHT22;28754;47.700;7.924;2024-02-28T15:15:27;9.10;99.90
42615;DHT22;28754;47.700;7.924;2024-02-28T15:18:14;9.00;99.90
42615;DHT22;28754;47.700;7.924;2024-02-28T15:21:01;9.00;99.90
42615;DHT22;28754;47.700;7.924;2024-02-28T15:23:48;8.70;99.90
42615;DHT22;28754;47.700;7.924;2024-02-28T15:26:35;9.00;99.90
42615;DHT22;28754;47.700;7.924;2024-02-28T15:29:21;9.20;99.90
42615;DHT22;28754;47.700;7.924;2024-02-28T15:32:09;9.10;99.90
42615;DHT22;28754;47.700;7.924;2024-02-28T15:34:56;8.90;99.90
42615;DHT22;28754;47.700;7.924;2024-02-28T15:37:42;9.10;99.90
42615;DHT22;28754;47.700;7.924;2024-02-28T15:40:29;9.30;99.90
42615;DHT22;28754;47.700;7.924;2024-02-28T15:43:16;9.10;99.90
42615;DHT22;28754;47.700;7.924;2024-02-28T15:46:03;9.20;99.90
42615;DHT22;28754;47.700;7.924;2024-02-28T15:48:49;9.50;99.90
42615;DHT22;28754;47.700;7.924;2024-02-28T15:51:36;9.60;99.90
42615;DHT22;28754;47.700;7.924;2024-02-28T15:54:23;9.70;99.90
42615;DHT22;28754;47.700;7.924;2024-02-28T15:57:09;9.70;99.90
42615;DHT22;28754;47.700;7.924;2024-02-28T15:59:56;9.70;99.90
42615;DHT22;28754;47.700;7.924;2024-02-28T16:02:43;9.80;99.90
42615;DHT22;28754;47.700;7.924;2024-02-28T16:05:30;9.80;99.90
42615;DHT22;28754;47.700;7.924;2024-02-28T16:08:17;9.90;99.90
42615;DHT22;28754;47.700;7.924;2024-02-28T16:11:04;9.90;99.90
42615;DHT22;28754;47.700;7.924;2024-02-28T16:13:51;9.80;99.90
42615;DHT22;28754;47.700;7.924;2024-02-28T16:16:37;9.70;99.90
42615;DHT22;28754;47.700;7.924;2024-02-28T16:19:24;9.40;99.90
42615;DHT22;28754;47.700;7.924;2024-02-28T16:22:12;9.50;99.90
42615;DHT22;28754;47.700;7.924;2024-02-28T16:24:58;9.50;99.90
42615;DHT22;28754;47.700;7.924;2024-02-28T16:27:45;9.60;99.90
42615;DHT22;28754;47.700;7.924;2024-02-28T16:30:32;9.00;99.90
42615;DHT22;28754;47.700;7.924;2024-02-28T16:33:19;8.80;99.90
42615;DHT22;28754;47.700;7.924;2024-02-28T16:36:10;8.50;99.90
42615;DHT22;28754;47.700;7.924;2024-02-28T16:38:57;8.30;99.90
42615;DHT22;28754;47.700;7.924;2024-02-28T16:41:44;8.20;99.90
42615;DHT22;28754;47.700;7.924;2024-02-28T16:44:30;8.00;99.90
42615;DHT22;28754;47.700;7.924;2024-02-28T16:47:17;8.00;99.90
42615;DHT22;28754;47.700;7.924;2024-02-28T16:50:04;8.00;99.90
42615;DHT22;28754;47.700;7.924;2024-02-28T16:52:51;8.20;99.90
42615;DHT22;28754;47.700;7.924;2024-02-28T16:55:38;8.40;99.90
42615;DHT22;28754;47.700;7.924;2024-02-28T16:58:25;8.60;99.90
42615;DHT22;28754;47.700;7.924;2024-02-28T17:01:13;8.80;99.90
42615;DHT22;28754;47.700;7.924;2024-02-28T17:04:00;8.80;99.90
42615;DHT22;28754;47.700;7.924;2024-02-28T17:06:46;8.70;99.90
42615;DHT22;28754;47.700;7.924;2024-02-28T17:09:35;8.70;99.90
42615;DHT22;28754;47.700;7.924;2024-02-28T17:12:22;8.60;99.90
42615;DHT22;28754;47.700;7.924;2024-02-28T17:15:09;8.30;99.90
42615;DHT22;28754;47.700;7.924;2024-02-28T17:17:56;8.10;99.90
42615;DHT22;28754;47.700;7.924;2024-02-28T17:20:43;8.10;99.90
42615;DHT22;28754;47.700;7.924;2024-02-28T17:23:30;8.10;99.90
42615;DHT22;28754;47.700;7.924;2024-02-28T17:26:16;8.40;99.90
42615;DHT22;28754;47.700;7.924;2024-02-28T17:29:03;8.60;99.90
42615;DHT22;28754;47.700;7.924;2024-02-28T17:31:50;8.80;99.90
42615;DHT22;28754;47.700;7.924;2024-02-28T17:34:37;8.80;99.90
42615;DHT22;28754;47.700;7.924;2024-02-28T17:37:24;8.80;99.90
42615;DHT22;28754;47.700;7.924;2024-02-28T17:40:14;8.70;99.90
42615;DHT22;28754;47.700;7.924;2024-02-28T17:43:01;8.60;99.90
42615;DHT22;28754;47.700;7.924;2024-02-28T17:45:50;8.80;99.90
42615;DHT22;28754;47.700;7.924;2024-02-28T17:48:40;8.70;99.90